sensor_id;sensor_type;location;lat;lon;timestamp;temperature;humidity
7077;DHT22;3579;48.956;9.154;2023-02-04T00:01:10;19.50;48.50
7077;DHT22;3579;48.956;9.154;2023-02-04T00:03:36;19.50;49.00
7077;DHT22;3579;48.956;9.154;2023-02-04T00:06:01;19.50;48.50
7077;DHT22;3579;48.956;9.154;2023-02-04T00:08:27;19.50;48.50
7077;DHT22;3579;48.956;9.154;2023-02-04T00:10:53;19.50;48.50
7077;DHT22;3579;48.956;9.154;2023-02-04T00:13:20;19.50;48.50
7077;DHT22;3579;48.956;9.154;2023-02-04T00:15:46;19.50;48.50
7077;DHT22;3579;48.956;9.154;2023-02-04T00:18:11;19.50;48.50
7077;DHT22;3579;48.956;9.154;2023-02-04T00:20:37;19.50;48.50
7077;DHT22;3579;48.956;9.154;2023-02-04T00:23:03;19.50;48.50
7077;DHT22;3579;48.956;9.154;2023-02-04T00:25:29;19.50;48.50
7077;DHT22;3579;48.956;9.154;2023-02-04T00:27:56;19.40;48.40
7077;DHT22;3579;48.956;9.154;2023-02-04T00:30:21;19.50;48.50
7077;DHT22;3579;48.956;9.154;2023-02-04T00:32:48;19.40;48.40
7077;DHT22;3579;48.956;9.154;2023-02-04T00:35:16;19.40;48.40
7077;DHT22;3579;48.956;9.154;2023-02-04T00:37:41;19.40;48.40
7077;DHT22;3579;48.956;9.154;2023-02-04T00:40:08;19.40;48.30
7077;DHT22;3579;48.956;9.154;2023-02-04T00:42:34;19.40;48.30
7077;DHT22;3579;48.956;9.154;2023-02-04T00:45:00;19.40;48.30
7077;DHT22;3579;48.956;9.154;2023-02-04T00:47:26;19.40;48.30
7077;DHT22;3579;48.956;9.154;2023-02-04T00:49:52;19.40;48.40
7077;DHT22;3579;48.956;9.154;2023-02-04T00:52:18;19.40;48.50
7077;DHT22;3579;48.956;9.154;2023-02-04T00:54:44;19.40;48.40
7077;DHT22;3579;48.956;9.154;2023-02-04T00:57:10;19.40;48.50
7077;DHT22;3579;48.956;9.154;2023-02-04T00:59:36;19.40;48.50
7077;DHT22;3579;48.956;9.154;2023-02-04T01:02:02;19.40;48.60
7077;DHT22;3579;48.956;9.154;2023-02-04T01:04:29;19.40;48.60
7077;DHT22;3579;48.956;9.154;2023-02-04T01:06:55;19.30;48.50
7077;DHT22;3579;48.956;9.154;2023-02-04T01:09:21;19.30;48.50
7077;DHT22;3579;48.956;9.154;2023-02-04T01:11:47;19.40;48.60
7077;DHT22;3579;48.956;9.154;2023-02-04T01:14:13;19.30;48.50
7077;DHT22;3579;48.956;9.154;2023-02-04T01:16:39;19.40;48.60
7077;DHT22;3579;48.956;9.154;2023-02-04T01:19:05;19.40;48.60
7077;DHT22;3579;48.956;9.154;2023-02-04T01:21:31;19.30;48.50
7077;DHT22;3579;48.956;9.154;2023-02-04T01:23:57;19.40;48.60
7077;DHT22;3579;48.956;9.154;2023-02-04T01:26:23;19.40;48.60
7077;DHT22;3579;48.956;9.154;2023-02-04T01:28:50;19.40;48.60
7077;DHT22;3579;48.956;9.154;2023-02-04T01:31:16;19.40;48.60
7077;DHT22;3579;48.956;9.154;2023-02-04T01:33:42;19.40;48.60
7077;DHT22;3579;48.956;9.154;2023-02-04T01:36:08;19.30;48.60
7077;DHT22;3579;48.956;9.154;2023-02-04T01:38:35;19.30;48.60
7077;DHT22;3579;48.956;9.154;2023-02-04T01:41:01;19.30;48.60
7077;DHT22;3579;48.956;9.154;2023-02-04T01:43:29;19.30;48.60
7077;DHT22;3579;48.956;9.154;2023-02-04T01:45:56;19.30;48.60
7077;DHT22;3579;48.956;9.154;2023-02-04T01:48:22;19.30;48.60
7077;DHT22;3579;48.956;9.154;2023-02-04T01:50:51;19.30;48.60
7077;DHT22;3579;48.956;9.154;2023-02-04T01:53:22;19.30;48.60
7077;DHT22;3579;48.956;9.154;2023-02-04T01:55:51;19.30;48.60
7077;DHT22;3579;48.956;9.154;2023-02-04T01:58:17;19.30;48.60
7077;DHT22;3579;48.956;9.154;2023-02-04T02:00:44;19.30;48.60
7077;DHT22;3579;48.956;9.154;2023-02-04T02:03:11;19.30;48.60
7077;DHT22;3579;48.956;9.154;2023-02-04T02:05:46;19.30;48.60
7077;DHT22;3579;48.956;9.154;2023-02-04T02:08:13;19.30;48.60
7077;DHT22;3579;48.956;9.154;2023-02-04T02:10:42;19.30;48.60
7077;DHT22;3579;48.956;9.154;2023-02-04T02:13:11;19.20;48.60
7077;DHT22;3579;48.956;9.154;2023-02-04T02:15:38;19.20;48.60
7077;DHT22;3579;48.956;9.154;2023-02-04T02:18:04;19.20;49.20
7077;DHT22;3579;48.956;9.154;2023-02-04T02:20:31;19.20;48.60
7077;DHT22;3579;48.956;9.154;2023-02-04T02:23:23;19.20;48.60
7077;DHT22;3579;48.956;9.154;2023-02-04T02:25:52;19.20;48.60
7077;DHT22;3579;48.956;9.154;2023-02-04T02:28:20;19.20;48.70
7077;DHT22;3579;48.956;9.154;2023-02-04T02:30:47;19.20;49.20
7077;DHT22;3579;48.956;9.154;2023-02-04T02:33:16;19.20;48.70
7077;DHT22;3579;48.956;9.154;2023-02-04T02:35:44;19.20;48.70
7077;DHT22;3579;48.956;9.154;2023-02-04T02:38:14;19.20;48.60
7077;DHT22;3579;48.956;9.154;2023-02-04T02:40:40;19.20;48.70
7077;DHT22;3579;48.956;9.154;2023-02-04T02:43:10;19.20;48.80
7077;DHT22;3579;48.956;9.154;2023-02-04T02:45:38;19.20;48.80
7077;DHT22;3579;48.956;9.154;2023-02-04T02:48:04;19.20;48.80
7077;DHT22;3579;48.956;9.154;2023-02-04T02:50:32;19.20;48.70
7077;DHT22;3579;48.956;9.154;2023-02-04T02:52:58;19.20;48.80
7077;DHT22;3579;48.956;9.154;2023-02-04T02:55:26;19.20;48.80
7077;DHT22;3579;48.956;9.154;2023-02-04T02:57:55;19.20;48.80
7077;DHT22;3579;48.956;9.154;2023-02-04T03:00:26;19.20;48.80
7077;DHT22;3579;48.956;9.154;2023-02-04T03:05:19;19.10;48.80
7077;DHT22;3579;48.956;9.154;2023-02-04T03:07:45;19.20;48.80
7077;DHT22;3579;48.956;9.154;2023-02-04T03:10:11;19.10;48.70
7077;DHT22;3579;48.956;9.154;2023-02-04T03:12:37;19.10;48.70
7077;DHT22;3579;48.956;9.154;2023-02-04T03:15:04;19.10;48.70
7077;DHT22;3579;48.956;9.154;2023-02-04T03:17:31;19.10;48.80
7077;DHT22;3579;48.956;9.154;2023-02-04T03:19:57;19.10;48.70
7077;DHT22;3579;48.956;9.154;2023-02-04T03:22:23;19.10;48.80
7077;DHT22;3579;48.956;9.154;2023-02-04T03:24:49;19.10;48.80
7077;DHT22;3579;48.956;9.154;2023-02-04T03:27:17;19.10;48.80
7077;DHT22;3579;48.956;9.154;2023-02-04T03:29:44;19.10;48.80
7077;DHT22;3579;48.956;9.154;2023-02-04T03:32:11;19.10;48.80
7077;DHT22;3579;48.956;9.154;2023-02-04T03:34:37;19.10;48.80
7077;DHT22;3579;48.956;9.154;2023-02-04T03:37:03;19.10;48.80
7077;DHT22;3579;48.956;9.154;2023-02-04T03:39:29;19.10;48.90
7077;DHT22;3579;48.956;9.154;2023-02-04T03:41:55;19.10;49.40
7077;DHT22;3579;48.956;9.154;2023-02-04T03:44:21;19.10;48.90
7077;DHT22;3579;48.956;9.154;2023-02-04T03:46:52;19.10;48.90
7077;DHT22;3579;48.956;9.154;2023-02-04T03:49:21;19.10;48.90
7077;DHT22;3579;48.956;9.154;2023-02-04T03:51:47;19.10;48.90
7077;DHT22;3579;48.956;9.154;2023-02-04T03:54:13;19.00;48.80
7077;DHT22;3579;48.956;9.154;2023-02-04T03:56:39;19.00;48.90
7077;DHT22;3579;48.956;9.154;2023-02-04T03:59:05;19.10;48.90
7077;DHT22;3579;48.956;9.154;2023-02-04T04:01:32;19.00;48.90
7077;DHT22;3579;48.956;9.154;2023-02-04T04:03:58;19.00;48.90
7077;DHT22;3579;48.956;9.154;2023-02-04T04:06:24;19.00;48.90
7077;DHT22;3579;48.956;9.154;2023-02-04T04:08:50;19.00;48.90
7077;DHT22;3579;48.956;9.154;2023-02-04T04:11:16;19.00;48.90
7077;DHT22;3579;48.956;9.154;2023-02-04T04:13:42;19.00;48.90
7077;DHT22;3579;48.956;9.154;2023-02-04T04:16:08;19.00;48.90
7077;DHT22;3579;48.956;9.154;2023-02-04T04:18:34;19.00;48.90
7077;DHT22;3579;48.956;9.154;2023-02-04T04:21:01;19.00;48.90
7077;DHT22;3579;48.956;9.154;2023-02-04T04:23:27;19.00;49.00
7077;DHT22;3579;48.956;9.154;2023-02-04T04:25:53;19.00;49.00
7077;DHT22;3579;48.956;9.154;2023-02-04T04:28:19;19.00;49.00
7077;DHT22;3579;48.956;9.154;2023-02-04T04:30:45;19.00;49.00
7077;DHT22;3579;48.956;9.154;2023-02-04T04:33:11;19.00;49.00
7077;DHT22;3579;48.956;9.154;2023-02-04T04:35:37;19.00;49.00
7077;DHT22;3579;48.956;9.154;2023-02-04T04:38:03;19.00;49.00
7077;DHT22;3579;48.956;9.154;2023-02-04T04:40:29;19.00;49.10
7077;DHT22;3579;48.956;9.154;2023-02-04T04:42:55;19.00;49.00
7077;DHT22;3579;48.956;9.154;2023-02-04T04:45:21;19.00;49.00
7077;DHT22;3579;48.956;9.154;2023-02-04T04:47:47;19.00;49.00
7077;DHT22;3579;48.956;9.154;2023-02-04T04:50:13;19.00;49.00
7077;DHT22;3579;48.956;9.154;2023-02-04T04:52:40;19.00;49.00
7077;DHT22;3579;48.956;9.154;2023-02-04T04:55:06;19.00;49.00
7077;DHT22;3579;48.956;9.154;2023-02-04T04:57:33;18.50;48.60
7077;DHT22;3579;48.956;9.154;2023-02-04T04:59:59;18.90;49.00
7077;DHT22;3579;48.956;9.154;2023-02-04T05:02:25;19.00;49.00
7077;DHT22;3579;48.956;9.154;2023-02-04T05:04:51;19.00;49.10
7077;DHT22;3579;48.956;9.154;2023-02-04T05:07:17;19.00;49.10
7077;DHT22;3579;48.956;9.154;2023-02-04T05:09:43;18.90;49.00
7077;DHT22;3579;48.956;9.154;2023-02-04T05:12:09;19.00;49.10
7077;DHT22;3579;48.956;9.154;2023-02-04T05:14:36;18.90;49.00
7077;DHT22;3579;48.956;9.154;2023-02-04T05:17:02;18.90;49.00
7077;DHT22;3579;48.956;9.154;2023-02-04T05:19:28;18.90;49.10
7077;DHT22;3579;48.956;9.154;2023-02-04T05:21:54;18.90;49.10
7077;DHT22;3579;48.956;9.154;2023-02-04T05:24:20;18.90;49.10
7077;DHT22;3579;48.956;9.154;2023-02-04T05:26:46;18.90;49.10
7077;DHT22;3579;48.956;9.154;2023-02-04T05:29:12;18.90;49.10
7077;DHT22;3579;48.956;9.154;2023-02-04T05:31:38;18.90;49.10
7077;DHT22;3579;48.956;9.154;2023-02-04T05:34:04;18.90;49.10
7077;DHT22;3579;48.956;9.154;2023-02-04T05:36:30;18.90;49.10
7077;DHT22;3579;48.956;9.154;2023-02-04T05:38:56;18.90;49.60
7077;DHT22;3579;48.956;9.154;2023-02-04T05:41:22;18.90;49.10
7077;DHT22;3579;48.956;9.154;2023-02-04T05:43:48;18.90;49.10
7077;DHT22;3579;48.956;9.154;2023-02-04T05:46:14;18.90;49.10
7077;DHT22;3579;48.956;9.154;2023-02-04T05:48:40;18.90;49.10
7077;DHT22;3579;48.956;9.154;2023-02-04T05:51:06;18.90;49.20
7077;DHT22;3579;48.956;9.154;2023-02-04T05:53:32;18.90;49.10
7077;DHT22;3579;48.956;9.154;2023-02-04T05:55:58;18.90;49.10
7077;DHT22;3579;48.956;9.154;2023-02-04T05:58:24;18.80;49.60
7077;DHT22;3579;48.956;9.154;2023-02-04T06:00:50;18.90;49.20
7077;DHT22;3579;48.956;9.154;2023-02-04T06:03:16;18.90;49.10
7077;DHT22;3579;48.956;9.154;2023-02-04T06:05:44;18.90;49.10
7077;DHT22;3579;48.956;9.154;2023-02-04T06:08:10;18.80;49.10
7077;DHT22;3579;48.956;9.154;2023-02-04T06:10:36;18.80;49.10
7077;DHT22;3579;48.956;9.154;2023-02-04T06:13:02;18.90;49.20
7077;DHT22;3579;48.956;9.154;2023-02-04T06:15:28;18.80;49.20
7077;DHT22;3579;48.956;9.154;2023-02-04T06:17:54;18.80;49.10
7077;DHT22;3579;48.956;9.154;2023-02-04T06:20:20;18.80;49.10
7077;DHT22;3579;48.956;9.154;2023-02-04T06:22:46;18.90;49.20
7077;DHT22;3579;48.956;9.154;2023-02-04T06:25:12;18.80;49.20
7077;DHT22;3579;48.956;9.154;2023-02-04T06:27:38;18.80;49.20
7077;DHT22;3579;48.956;9.154;2023-02-04T06:30:04;18.80;49.20
7077;DHT22;3579;48.956;9.154;2023-02-04T06:32:30;18.80;49.10
7077;DHT22;3579;48.956;9.154;2023-02-04T06:34:56;18.80;49.20
7077;DHT22;3579;48.956;9.154;2023-02-04T06:37:22;18.80;49.20
7077;DHT22;3579;48.956;9.154;2023-02-04T06:39:48;18.80;49.20
7077;DHT22;3579;48.956;9.154;2023-02-04T06:42:14;18.80;49.20
7077;DHT22;3579;48.956;9.154;2023-02-04T06:44:40;18.80;49.20
7077;DHT22;3579;48.956;9.154;2023-02-04T06:47:07;18.80;49.20
7077;DHT22;3579;48.956;9.154;2023-02-04T06:49:33;18.80;49.30
7077;DHT22;3579;48.956;9.154;2023-02-04T06:51:59;18.80;49.30
7077;DHT22;3579;48.956;9.154;2023-02-04T06:54:25;18.80;49.30
7077;DHT22;3579;48.956;9.154;2023-02-04T06:56:51;18.80;49.30
7077;DHT22;3579;48.956;9.154;2023-02-04T06:59:17;18.80;49.20
7077;DHT22;3579;48.956;9.154;2023-02-04T07:01:43;18.80;49.30
7077;DHT22;3579;48.956;9.154;2023-02-04T07:04:09;18.80;49.30
7077;DHT22;3579;48.956;9.154;2023-02-04T07:06:35;18.80;49.30
7077;DHT22;3579;48.956;9.154;2023-02-04T07:09:01;18.80;49.30
7077;DHT22;3579;48.956;9.154;2023-02-04T07:11:27;18.80;49.30
7077;DHT22;3579;48.956;9.154;2023-02-04T07:13:53;18.80;49.20
7077;DHT22;3579;48.956;9.154;2023-02-04T07:16:19;18.80;49.30
7077;DHT22;3579;48.956;9.154;2023-02-04T07:18:45;18.80;49.30
7077;DHT22;3579;48.956;9.154;2023-02-04T07:21:11;18.80;49.20
7077;DHT22;3579;48.956;9.154;2023-02-04T07:23:37;18.80;49.30
7077;DHT22;3579;48.956;9.154;2023-02-04T07:26:03;18.80;49.30
7077;DHT22;3579;48.956;9.154;2023-02-04T07:28:29;18.80;49.80
7077;DHT22;3579;48.956;9.154;2023-02-04T07:30:56;18.80;49.30
7077;DHT22;3579;48.956;9.154;2023-02-04T07:33:22;18.80;49.30
7077;DHT22;3579;48.956;9.154;2023-02-04T07:35:48;18.80;49.20
7077;DHT22;3579;48.956;9.154;2023-02-04T07:38:14;18.80;49.30
7077;DHT22;3579;48.956;9.154;2023-02-04T07:40:40;18.80;49.30
7077;DHT22;3579;48.956;9.154;2023-02-04T07:43:06;18.80;49.30
7077;DHT22;3579;48.956;9.154;2023-02-04T07:45:32;18.80;49.30
7077;DHT22;3579;48.956;9.154;2023-02-04T07:47:58;18.80;49.30
7077;DHT22;3579;48.956;9.154;2023-02-04T07:50:24;18.80;49.30
7077;DHT22;3579;48.956;9.154;2023-02-04T07:52:50;18.80;49.30
7077;DHT22;3579;48.956;9.154;2023-02-04T07:55:16;18.80;49.30
7077;DHT22;3579;48.956;9.154;2023-02-04T07:57:43;18.80;49.30
7077;DHT22;3579;48.956;9.154;2023-02-04T08:00:09;18.80;49.30
7077;DHT22;3579;48.956;9.154;2023-02-04T08:02:35;18.80;49.30
7077;DHT22;3579;48.956;9.154;2023-02-04T08:05:01;18.80;49.30
7077;DHT22;3579;48.956;9.154;2023-02-04T08:07:27;18.80;49.20
7077;DHT22;3579;48.956;9.154;2023-02-04T08:09:53;18.80;49.30
7077;DHT22;3579;48.956;9.154;2023-02-04T08:12:19;18.80;49.30
7077;DHT22;3579;48.956;9.154;2023-02-04T08:14:45;18.80;49.30
7077;DHT22;3579;48.956;9.154;2023-02-04T08:17:11;18.80;49.20
7077;DHT22;3579;48.956;9.154;2023-02-04T08:19:37;18.80;49.20
7077;DHT22;3579;48.956;9.154;2023-02-04T08:22:03;18.90;49.30
7077;DHT22;3579;48.956;9.154;2023-02-04T08:24:29;18.90;49.20
7077;DHT22;3579;48.956;9.154;2023-02-04T08:26:56;18.90;49.20
7077;DHT22;3579;48.956;9.154;2023-02-04T08:29:23;18.90;49.10
7077;DHT22;3579;48.956;9.154;2023-02-04T08:31:50;19.00;49.80
7077;DHT22;3579;48.956;9.154;2023-02-04T08:34:16;18.90;49.10
7077;DHT22;3579;48.956;9.154;2023-02-04T08:36:42;19.00;49.20
7077;DHT22;3579;48.956;9.154;2023-02-04T08:39:09;18.90;49.20
7077;DHT22;3579;48.956;9.154;2023-02-04T08:41:37;18.90;49.20
7077;DHT22;3579;48.956;9.154;2023-02-04T08:44:04;19.00;49.30
7077;DHT22;3579;48.956;9.154;2023-02-04T08:46:30;19.00;49.20
7077;DHT22;3579;48.956;9.154;2023-02-04T08:48:56;19.00;49.10
7077;DHT22;3579;48.956;9.154;2023-02-04T08:51:22;19.00;49.10
7077;DHT22;3579;48.956;9.154;2023-02-04T08:53:48;19.10;49.10
7077;DHT22;3579;48.956;9.154;2023-02-04T08:56:14;19.10;49.10
7077;DHT22;3579;48.956;9.154;2023-02-04T08:58:45;19.10;49.20
7077;DHT22;3579;48.956;9.154;2023-02-04T09:01:13;19.10;49.20
7077;DHT22;3579;48.956;9.154;2023-02-04T09:03:39;19.10;49.20
7077;DHT22;3579;48.956;9.154;2023-02-04T09:06:06;19.10;49.20
7077;DHT22;3579;48.956;9.154;2023-02-04T09:08:32;19.10;49.10
7077;DHT22;3579;48.956;9.154;2023-02-04T09:10:58;19.10;49.10
7077;DHT22;3579;48.956;9.154;2023-02-04T09:13:24;19.20;49.20
7077;DHT22;3579;48.956;9.154;2023-02-04T09:15:50;19.20;49.20
7077;DHT22;3579;48.956;9.154;2023-02-04T09:18:18;19.20;49.10
7077;DHT22;3579;48.956;9.154;2023-02-04T09:20:47;19.20;49.60
7077;DHT22;3579;48.956;9.154;2023-02-04T09:23:14;19.20;49.10
7077;DHT22;3579;48.956;9.154;2023-02-04T09:25:42;19.20;49.00
7077;DHT22;3579;48.956;9.154;2023-02-04T09:28:09;19.20;49.00
7077;DHT22;3579;48.956;9.154;2023-02-04T09:30:37;19.20;49.00
7077;DHT22;3579;48.956;9.154;2023-02-04T09:33:03;19.20;49.00
7077;DHT22;3579;48.956;9.154;2023-02-04T09:35:30;19.20;49.00
7077;DHT22;3579;48.956;9.154;2023-02-04T09:37:56;19.30;49.00
7077;DHT22;3579;48.956;9.154;2023-02-04T09:40:22;19.30;49.00
7077;DHT22;3579;48.956;9.154;2023-02-04T09:42:50;19.30;49.00
7077;DHT22;3579;48.956;9.154;2023-02-04T09:45:20;19.30;49.00
7077;DHT22;3579;48.956;9.154;2023-02-04T09:47:48;19.30;49.00
7077;DHT22;3579;48.956;9.154;2023-02-04T09:50:16;19.30;49.00
7077;DHT22;3579;48.956;9.154;2023-02-04T09:52:44;19.30;49.10
7077;DHT22;3579;48.956;9.154;2023-02-04T09:55:17;19.30;49.00
7077;DHT22;3579;48.956;9.154;2023-02-04T09:57:44;19.30;49.00
7077;DHT22;3579;48.956;9.154;2023-02-04T10:02:44;19.30;49.00
7077;DHT22;3579;48.956;9.154;2023-02-04T10:05:37;19.40;49.00
7077;DHT22;3579;48.956;9.154;2023-02-04T10:08:04;19.40;49.00
7077;DHT22;3579;48.956;9.154;2023-02-04T10:10:30;19.40;48.90
7077;DHT22;3579;48.956;9.154;2023-02-04T10:12:59;19.40;48.90
7077;DHT22;3579;48.956;9.154;2023-02-04T10:15:26;19.40;49.00
7077;DHT22;3579;48.956;9.154;2023-02-04T10:18:02;19.40;48.90
7077;DHT22;3579;48.956;9.154;2023-02-04T10:20:32;19.40;48.90
7077;DHT22;3579;48.956;9.154;2023-02-04T10:22:58;19.40;48.80
7077;DHT22;3579;48.956;9.154;2023-02-04T10:25:25;19.40;48.80
7077;DHT22;3579;48.956;9.154;2023-02-04T10:27:59;19.40;48.70
7077;DHT22;3579;48.956;9.154;2023-02-04T10:30:30;19.40;48.70
7077;DHT22;3579;48.956;9.154;2023-02-04T10:35:48;19.50;48.70
7077;DHT22;3579;48.956;9.154;2023-02-04T10:38:14;19.50;48.70
7077;DHT22;3579;48.956;9.154;2023-02-04T10:40:40;19.40;48.70
7077;DHT22;3579;48.956;9.154;2023-02-04T10:43:20;19.50;48.80
7077;DHT22;3579;48.956;9.154;2023-02-04T10:45:54;19.50;48.70
7077;DHT22;3579;48.956;9.154;2023-02-04T10:48:20;19.50;48.60
7077;DHT22;3579;48.956;9.154;2023-02-04T10:50:48;19.50;48.60
7077;DHT22;3579;48.956;9.154;2023-02-04T10:53:20;19.60;48.60
7077;DHT22;3579;48.956;9.154;2023-02-04T10:56:18;19.60;48.60
7077;DHT22;3579;48.956;9.154;2023-02-04T10:58:45;19.60;48.60
7077;DHT22;3579;48.956;9.154;2023-02-04T11:01:13;19.60;48.60
7077;DHT22;3579;48.956;9.154;2023-02-04T11:03:41;19.60;48.60
7077;DHT22;3579;48.956;9.154;2023-02-04T11:06:18;19.60;48.60
7077;DHT22;3579;48.956;9.154;2023-02-04T11:08:45;19.60;48.50
7077;DHT22;3579;48.956;9.154;2023-02-04T11:13:45;19.60;48.50
7077;DHT22;3579;48.956;9.154;2023-02-04T11:19:11;19.60;48.40
7077;DHT22;3579;48.956;9.154;2023-02-04T11:26:43;19.70;48.50
7077;DHT22;3579;48.956;9.154;2023-02-04T11:29:31;19.70;48.40
7077;DHT22;3579;48.956;9.154;2023-02-04T11:32:04;19.70;48.40
7077;DHT22;3579;48.956;9.154;2023-02-04T11:34:42;19.70;48.40
7077;DHT22;3579;48.956;9.154;2023-02-04T11:37:16;19.70;48.40
7077;DHT22;3579;48.956;9.154;2023-02-04T11:42:39;19.70;48.30
7077;DHT22;3579;48.956;9.154;2023-02-04T11:47:39;19.80;48.30
7077;DHT22;3579;48.956;9.154;2023-02-04T11:50:32;19.80;48.20
7077;DHT22;3579;48.956;9.154;2023-02-04T11:53:00;19.80;48.20
7077;DHT22;3579;48.956;9.154;2023-02-04T11:55:29;19.80;48.30
7077;DHT22;3579;48.956;9.154;2023-02-04T11:57:56;19.80;48.30
7077;DHT22;3579;48.956;9.154;2023-02-04T12:00:25;19.80;48.20
7077;DHT22;3579;48.956;9.154;2023-02-04T12:03:04;19.80;48.30
7077;DHT22;3579;48.956;9.154;2023-02-04T12:05:44;19.80;48.20
7077;DHT22;3579;48.956;9.154;2023-02-04T12:11:37;19.90;48.20
7077;DHT22;3579;48.956;9.154;2023-02-04T12:14:04;19.90;48.20
7077;DHT22;3579;48.956;9.154;2023-02-04T12:16:48;19.90;48.10
7077;DHT22;3579;48.956;9.154;2023-02-04T12:19:18;19.90;48.30
7077;DHT22;3579;48.956;9.154;2023-02-04T12:21:44;19.90;48.10
7077;DHT22;3579;48.956;9.154;2023-02-04T12:24:10;19.90;48.00
7077;DHT22;3579;48.956;9.154;2023-02-04T12:26:36;19.90;48.10
7077;DHT22;3579;48.956;9.154;2023-02-04T12:29:02;19.90;48.00
7077;DHT22;3579;48.956;9.154;2023-02-04T12:31:31;19.90;48.10
7077;DHT22;3579;48.956;9.154;2023-02-04T12:33:57;19.90;48.10
7077;DHT22;3579;48.956;9.154;2023-02-04T12:36:23;19.90;48.00
7077;DHT22;3579;48.956;9.154;2023-02-04T12:38:52;20.00;48.10
7077;DHT22;3579;48.956;9.154;2023-02-04T12:41:19;20.00;48.10
7077;DHT22;3579;48.956;9.154;2023-02-04T12:43:45;20.00;48.10
7077;DHT22;3579;48.956;9.154;2023-02-04T12:46:11;20.00;48.10
7077;DHT22;3579;48.956;9.154;2023-02-04T12:48:37;20.00;48.00
7077;DHT22;3579;48.956;9.154;2023-02-04T12:51:06;20.00;48.00
7077;DHT22;3579;48.956;9.154;2023-02-04T12:53:33;20.00;48.00
7077;DHT22;3579;48.956;9.154;2023-02-04T12:55:59;20.00;48.00
7077;DHT22;3579;48.956;9.154;2023-02-04T12:58:25;20.00;48.00
7077;DHT22;3579;48.956;9.154;2023-02-04T13:00:51;20.00;47.80
7077;DHT22;3579;48.956;9.154;2023-02-04T13:03:17;20.10;48.00
7077;DHT22;3579;48.956;9.154;2023-02-04T13:05:43;20.10;48.00
7077;DHT22;3579;48.956;9.154;2023-02-04T13:08:09;20.10;47.90
7077;DHT22;3579;48.956;9.154;2023-02-04T13:10:36;20.90;48.60
7077;DHT22;3579;48.956;9.154;2023-02-04T13:13:02;20.10;48.00
7077;DHT22;3579;48.956;9.154;2023-02-04T13:15:28;20.10;47.80
7077;DHT22;3579;48.956;9.154;2023-02-04T13:17:54;20.10;47.90
7077;DHT22;3579;48.956;9.154;2023-02-04T13:20:20;20.10;48.00
7077;DHT22;3579;48.956;9.154;2023-02-04T13:22:46;20.10;47.90
7077;DHT22;3579;48.956;9.154;2023-02-04T13:25:12;20.10;47.90
7077;DHT22;3579;48.956;9.154;2023-02-04T13:27:38;20.10;47.90
7077;DHT22;3579;48.956;9.154;2023-02-04T13:30:05;20.10;47.80
7077;DHT22;3579;48.956;9.154;2023-02-04T13:32:31;20.10;47.80
7077;DHT22;3579;48.956;9.154;2023-02-04T13:34:57;20.20;47.90
7077;DHT22;3579;48.956;9.154;2023-02-04T13:37:24;20.20;47.90
7077;DHT22;3579;48.956;9.154;2023-02-04T13:39:50;20.20;47.90
7077;DHT22;3579;48.956;9.154;2023-02-04T13:42:16;20.20;47.80
7077;DHT22;3579;48.956;9.154;2023-02-04T13:44:42;20.20;47.80
7077;DHT22;3579;48.956;9.154;2023-02-04T13:47:08;20.20;47.80
7077;DHT22;3579;48.956;9.154;2023-02-04T13:49:34;20.20;47.80
7077;DHT22;3579;48.956;9.154;2023-02-04T13:52:00;20.20;47.80
7077;DHT22;3579;48.956;9.154;2023-02-04T13:54:26;20.20;47.70
7077;DHT22;3579;48.956;9.154;2023-02-04T13:56:52;20.10;47.70
7077;DHT22;3579;48.956;9.154;2023-02-04T13:59:18;20.20;47.80
7077;DHT22;3579;48.956;9.154;2023-02-04T14:01:44;20.20;47.70
7077;DHT22;3579;48.956;9.154;2023-02-04T14:04:10;20.20;47.80
7077;DHT22;3579;48.956;9.154;2023-02-04T14:06:36;20.20;47.80
7077;DHT22;3579;48.956;9.154;2023-02-04T14:09:11;20.20;47.80
7077;DHT22;3579;48.956;9.154;2023-02-04T14:11:38;20.20;47.80
7077;DHT22;3579;48.956;9.154;2023-02-04T14:14:04;20.20;47.80
7077;DHT22;3579;48.956;9.154;2023-02-04T14:16:31;20.20;47.80
7077;DHT22;3579;48.956;9.154;2023-02-04T14:18:57;20.10;47.80
7077;DHT22;3579;48.956;9.154;2023-02-04T14:21:23;20.20;47.80
7077;DHT22;3579;48.956;9.154;2023-02-04T14:23:49;20.10;47.80
7077;DHT22;3579;48.956;9.154;2023-02-04T14:26:15;20.10;47.80
7077;DHT22;3579;48.956;9.154;2023-02-04T14:28:41;20.10;47.80
7077;DHT22;3579;48.956;9.154;2023-02-04T14:31:07;20.20;47.80
7077;DHT22;3579;48.956;9.154;2023-02-04T14:33:33;20.10;47.70
7077;DHT22;3579;48.956;9.154;2023-02-04T14:35:59;20.10;47.70
7077;DHT22;3579;48.956;9.154;2023-02-04T14:38:25;20.10;47.80
7077;DHT22;3579;48.956;9.154;2023-02-04T14:40:57;20.10;47.80
7077;DHT22;3579;48.956;9.154;2023-02-04T14:43:23;20.10;47.80
7077;DHT22;3579;48.956;9.154;2023-02-04T14:45:49;20.10;47.70
7077;DHT22;3579;48.956;9.154;2023-02-04T14:48:15;20.10;47.80
7077;DHT22;3579;48.956;9.154;2023-02-04T14:50:41;20.10;47.80
7077;DHT22;3579;48.956;9.154;2023-02-04T14:53:08;20.10;47.80
7077;DHT22;3579;48.956;9.154;2023-02-04T14:55:34;20.10;47.80
7077;DHT22;3579;48.956;9.154;2023-02-04T14:58:00;20.10;47.80
7077;DHT22;3579;48.956;9.154;2023-02-04T15:00:26;20.10;47.80
7077;DHT22;3579;48.956;9.154;2023-02-04T15:02:52;20.10;47.80
7077;DHT22;3579;48.956;9.154;2023-02-04T15:05:18;20.10;47.80
7077;DHT22;3579;48.956;9.154;2023-02-04T15:07:44;20.10;47.80
7077;DHT22;3579;48.956;9.154;2023-02-04T15:10:11;20.10;47.80
7077;DHT22;3579;48.956;9.154;2023-02-04T15:12:38;20.10;47.80
7077;DHT22;3579;48.956;9.154;2023-02-04T15:15:04;20.10;47.80
7077;DHT22;3579;48.956;9.154;2023-02-04T15:17:30;20.10;47.80
7077;DHT22;3579;48.956;9.154;2023-02-04T15:19:56;20.10;47.80
7077;DHT22;3579;48.956;9.154;2023-02-04T15:22:22;20.10;47.80
7077;DHT22;3579;48.956;9.154;2023-02-04T15:24:49;20.10;47.80
7077;DHT22;3579;48.956;9.154;2023-02-04T15:27:15;20.10;47.80
7077;DHT22;3579;48.956;9.154;2023-02-04T15:29:41;20.10;47.80
7077;DHT22;3579;48.956;9.154;2023-02-04T15:32:07;20.10;47.80
7077;DHT22;3579;48.956;9.154;2023-02-04T15:34:34;20.10;47.80
7077;DHT22;3579;48.956;9.154;2023-02-04T15:37:01;20.10;47.80
7077;DHT22;3579;48.956;9.154;2023-02-04T15:39:28;20.10;47.80
7077;DHT22;3579;48.956;9.154;2023-02-04T15:41:54;20.00;47.70
7077;DHT22;3579;48.956;9.154;2023-02-04T15:44:20;20.00;47.80
7077;DHT22;3579;48.956;9.154;2023-02-04T15:46:46;20.00;47.80
7077;DHT22;3579;48.956;9.154;2023-02-04T15:49:14;20.00;47.80
7077;DHT22;3579;48.956;9.154;2023-02-04T15:51:40;20.00;47.90
7077;DHT22;3579;48.956;9.154;2023-02-04T15:54:06;20.00;47.80
7077;DHT22;3579;48.956;9.154;2023-02-04T15:56:32;20.00;47.80
7077;DHT22;3579;48.956;9.154;2023-02-04T15:58:59;20.00;47.90
7077;DHT22;3579;48.956;9.154;2023-02-04T16:01:25;20.00;47.80
7077;DHT22;3579;48.956;9.154;2023-02-04T16:03:51;20.00;47.90
7077;DHT22;3579;48.956;9.154;2023-02-04T16:06:24;19.90;47.80
7077;DHT22;3579;48.956;9.154;2023-02-04T16:08:50;19.90;47.90
7077;DHT22;3579;48.956;9.154;2023-02-04T16:11:16;19.90;47.90
7077;DHT22;3579;48.956;9.154;2023-02-04T16:13:42;19.90;47.90
7077;DHT22;3579;48.956;9.154;2023-02-04T16:16:08;19.90;47.90
7077;DHT22;3579;48.956;9.154;2023-02-04T16:18:34;19.90;47.90
7077;DHT22;3579;48.956;9.154;2023-02-04T16:21:01;19.90;47.90
7077;DHT22;3579;48.956;9.154;2023-02-04T16:23:27;19.90;47.90
7077;DHT22;3579;48.956;9.154;2023-02-04T16:25:53;19.90;47.90
7077;DHT22;3579;48.956;9.154;2023-02-04T16:28:19;19.80;47.90